createdAt,value
2023-02-05T00:00:01.677Z,5.23
2023-02-05T00:02:29.996Z,4.97
2023-02-05T00:04:58.086Z,4.60
2023-02-05T00:07:26.104Z,4.50
2023-02-05T00:09:55.613Z,6.23
2023-02-05T00:12:23.645Z,5.10
2023-02-05T00:14:51.669Z,7.10
2023-02-05T00:17:19.922Z,5.53
2023-02-05T00:19:48.068Z,3.93
2023-02-05T00:22:16.522Z,4.97
2023-02-05T00:24:44.540Z,5.07
2023-02-05T00:27:14.011Z,5.10
2023-02-05T00:29:42.070Z,5.67
2023-02-05T00:32:10.075Z,4.97
2023-02-05T00:34:38.083Z,6.47
2023-02-05T00:37:06.040Z,12.33
2023-02-05T00:39:34.019Z,5.57
2023-02-05T00:42:02.128Z,6.10
2023-02-05T00:44:32.197Z,6.33
2023-02-05T00:47:01.209Z,4.90
2023-02-05T00:49:29.482Z,4.67
2023-02-05T00:51:57.521Z,4.23
2023-02-05T00:54:25.545Z,5.10
2023-02-05T00:56:53.569Z,5.47
2023-02-05T00:59:23.721Z,4.70
2023-02-05T01:01:53.338Z,6.20
2023-02-05T01:04:21.949Z,5.27
2023-02-05T01:06:50.191Z,4.03
2023-02-05T01:09:18.219Z,4.93
2023-02-05T01:11:47.366Z,5.17
2023-02-05T01:14:15.369Z,5.23
2023-02-05T01:16:43.488Z,4.60
2023-02-05T01:19:13.085Z,5.23
2023-02-05T01:21:41.116Z,4.67
2023-02-05T01:24:09.189Z,5.37
2023-02-05T01:26:37.131Z,4.77
2023-02-05T01:29:05.529Z,4.90
2023-02-05T01:31:33.704Z,5.23
2023-02-05T01:34:02.416Z,4.50
2023-02-05T01:36:31.817Z,5.30
2023-02-05T01:38:59.813Z,4.63
2023-02-05T01:41:27.926Z,4.73
2023-02-05T01:44:10.742Z,4.57
2023-02-05T01:46:40.813Z,3.97
2023-02-05T01:49:13.294Z,4.00
2023-02-05T01:51:42.975Z,4.90
2023-02-05T01:54:11.025Z,6.37
2023-02-05T01:56:43.252Z,4.40
2023-02-05T01:59:16.878Z,5.60
2023-02-05T02:01:45.502Z,5.63
2023-02-05T02:04:16.258Z,4.17
2023-02-05T02:06:45.682Z,5.27
2023-02-05T02:09:13.814Z,4.43
2023-02-05T02:11:44.428Z,5.50
2023-02-05T02:14:12.956Z,3.80
2023-02-05T02:16:42.440Z,5.63
2023-02-05T02:19:29.316Z,5.07
2023-02-05T02:22:20.371Z,6.63
2023-02-05T02:25:29.225Z,5.10
2023-02-05T02:28:05.852Z,4.27
2023-02-05T02:30:40.600Z,5.80
2023-02-05T02:33:14.202Z,6.23
2023-02-05T02:35:47.990Z,4.97
2023-02-05T02:38:23.266Z,5.37
2023-02-05T02:40:55.587Z,6.07
2023-02-05T02:43:33.690Z,5.80
2023-02-05T02:46:05.771Z,5.90
2023-02-05T02:48:39.091Z,3.97
2023-02-05T02:51:09.537Z,5.23
2023-02-05T02:53:42.487Z,5.43
2023-02-05T02:56:13.747Z,5.07
2023-02-05T02:58:47.343Z,7.10
2023-02-05T03:01:18.466Z,9.67
2023-02-05T03:03:52.555Z,7.73
2023-02-05T03:06:22.231Z,8.60
2023-02-05T03:08:56.066Z,10.77
2023-02-05T03:11:26.191Z,7.10
2023-02-05T03:13:56.615Z,9.03
2023-02-05T03:16:28.922Z,7.87
2023-02-05T03:18:58.240Z,7.53
2023-02-05T03:21:31.631Z,8.23
2023-02-05T03:23:59.631Z,6.80
2023-02-05T03:26:30.517Z,7.30
2023-02-05T03:29:15.559Z,10.47
2023-02-05T03:31:58.970Z,8.67
2023-02-05T03:34:40.014Z,7.23
2023-02-05T03:37:17.501Z,9.17
2023-02-05T03:39:56.690Z,11.07
2023-02-05T03:42:35.106Z,9.17
2023-02-05T03:45:22.302Z,10.10
2023-02-05T03:48:06.280Z,8.10
2023-02-05T03:50:39.944Z,10.13
2023-02-05T03:53:14.937Z,11.00
2023-02-05T03:55:50.249Z,10.30
2023-02-05T03:58:24.247Z,9.03
2023-02-05T04:00:53.704Z,11.67
2023-02-05T04:03:22.824Z,11.77
2023-02-05T04:05:51.397Z,13.27
2023-02-05T04:08:20.666Z,9.53
2023-02-05T04:10:52.823Z,9.80
2023-02-05T04:13:20.844Z,12.63
2023-02-05T04:15:49.851Z,11.60
2023-02-05T04:18:20.728Z,9.10
2023-02-05T04:20:50.754Z,10.30
2023-02-05T04:23:22.968Z,14.27
2023-02-05T04:25:54.835Z,11.27
2023-02-05T04:28:27.800Z,11.07
2023-02-05T04:30:58.246Z,9.47
2023-02-05T04:33:27.792Z,11.30
2023-02-05T04:35:59.885Z,11.87
2023-02-05T04:38:28.423Z,10.50
2023-02-05T04:40:56.411Z,10.20
2023-02-05T04:43:24.628Z,10.20
2023-02-05T04:45:52.774Z,8.57
2023-02-05T04:48:21.706Z,11.57
2023-02-05T04:50:51.087Z,11.47
2023-02-05T04:53:19.125Z,11.40
2023-02-05T04:55:47.074Z,11.47
2023-02-05T04:58:15.299Z,11.20
2023-02-05T05:00:43.367Z,12.40
2023-02-05T05:03:11.336Z,11.03
2023-02-05T05:05:39.332Z,12.40
2023-02-05T05:08:08.671Z,11.00
2023-02-05T05:10:38.917Z,12.53
2023-02-05T05:13:06.883Z,11.60
2023-02-05T05:15:35.141Z,12.43
2023-02-05T05:18:03.393Z,11.20
2023-02-05T05:20:31.414Z,12.40
2023-02-05T05:22:59.411Z,13.33
2023-02-05T05:25:28.849Z,14.43
2023-02-05T05:27:56.904Z,12.40
2023-02-05T05:30:24.842Z,13.63
2023-02-05T05:32:52.778Z,13.23
2023-02-05T05:35:20.736Z,13.33
2023-02-05T05:37:48.797Z,14.07
2023-02-05T05:40:36.299Z,12.07
2023-02-05T05:43:23.263Z,11.40
2023-02-05T05:45:51.436Z,12.40
2023-02-05T05:48:19.442Z,13.93
2023-02-05T05:50:47.573Z,11.53
2023-02-05T05:53:15.610Z,12.37
2023-02-05T05:55:43.911Z,12.70
2023-02-05T05:58:13.250Z,10.63
2023-02-05T06:00:41.999Z,13.00
2023-02-05T06:03:11.531Z,11.07
2023-02-05T06:05:39.736Z,10.07
2023-02-05T06:08:08.027Z,9.77
2023-02-05T06:10:36.207Z,11.33
2023-02-05T06:13:04.199Z,11.60
2023-02-05T06:15:34.040Z,9.23
2023-02-05T06:18:02.230Z,8.30
2023-02-05T06:20:30.240Z,10.70
2023-02-05T06:22:58.223Z,8.60
2023-02-05T06:25:26.213Z,9.00
2023-02-05T06:27:54.243Z,9.17
2023-02-05T06:30:22.378Z,7.77
2023-02-05T06:32:51.685Z,9.87
2023-02-05T06:35:20.951Z,7.37
2023-02-05T06:37:49.029Z,7.87
2023-02-05T06:40:22.189Z,7.10
2023-02-05T06:42:50.192Z,7.83
2023-02-05T06:45:18.164Z,7.60
2023-02-05T06:47:46.212Z,6.50
2023-02-05T06:50:15.700Z,7.10
2023-02-05T06:52:46.808Z,7.10
2023-02-05T06:55:14.902Z,7.50
2023-02-05T06:57:42.900Z,8.17
2023-02-05T07:00:12.475Z,6.90
2023-02-05T07:02:40.564Z,8.40
2023-02-05T07:05:09.032Z,6.63
2023-02-05T07:07:38.397Z,7.10
2023-02-05T07:10:07.119Z,6.37
2023-02-05T07:12:35.091Z,6.87
2023-02-05T07:15:03.079Z,6.87
2023-02-05T07:17:31.069Z,7.70
2023-02-05T07:19:59.436Z,8.33
2023-02-05T07:22:27.612Z,7.60
2023-02-05T07:24:57.814Z,5.10
2023-02-05T07:27:25.825Z,7.83
2023-02-05T07:29:55.052Z,9.17
2023-02-05T07:32:23.072Z,8.43
2023-02-05T07:34:50.987Z,7.00
2023-02-05T07:37:21.271Z,7.27
2023-02-05T07:39:49.449Z,6.97
2023-02-05T07:42:18.787Z,8.93
2023-02-05T07:44:52.253Z,7.77
2023-02-05T07:47:20.307Z,6.60
2023-02-05T07:49:48.302Z,8.47
2023-02-05T07:52:16.243Z,8.27
2023-02-05T07:54:44.943Z,6.60
2023-02-05T07:57:12.893Z,8.30
2023-02-05T07:59:42.319Z,7.70
2023-02-05T08:02:13.524Z,6.50
2023-02-05T08:04:41.494Z,7.40
2023-02-05T08:07:10.301Z,7.10
2023-02-05T08:09:38.257Z,5.57
2023-02-05T08:12:07.258Z,5.73
2023-02-05T08:14:36.010Z,4.77
2023-02-05T08:17:06.004Z,1.40
2023-02-05T08:19:34.015Z,1.20
2023-02-05T08:22:01.980Z,1.00
2023-02-05T08:24:30.310Z,0.97
2023-02-05T08:26:58.319Z,1.10
2023-02-05T08:29:26.328Z,0.90
2023-02-05T08:31:54.390Z,0.70
2023-02-05T08:34:23.749Z,1.30
2023-02-05T08:36:51.743Z,0.90
2023-02-05T08:39:19.690Z,0.80
2023-02-05T08:41:47.629Z,0.80
2023-02-05T08:44:15.687Z,0.67
2023-02-05T08:46:50.264Z,1.10
2023-02-05T08:49:19.031Z,1.20
2023-02-05T08:51:48.718Z,0.63
2023-02-05T08:54:16.690Z,1.03
2023-02-05T08:56:46.532Z,1.47
2023-02-05T08:59:14.881Z,0.83
2023-02-05T09:01:43.319Z,0.80
2023-02-05T09:04:15.172Z,0.70
2023-02-05T09:06:43.667Z,0.60
2023-02-05T09:09:13.803Z,0.70
2023-02-05T09:11:42.535Z,0.90
2023-02-05T09:14:11.100Z,0.90
2023-02-05T09:16:39.191Z,1.63
2023-02-05T09:19:07.388Z,0.97
2023-02-05T09:21:35.437Z,0.80
2023-02-05T09:24:05.884Z,0.70
2023-02-05T09:26:35.603Z,0.83
2023-02-05T09:29:03.999Z,0.80
2023-02-05T09:31:32.065Z,0.80
2023-02-05T09:34:00.076Z,0.60
2023-02-05T09:36:28.106Z,1.10
2023-02-05T09:39:12.049Z,0.80
2023-02-05T09:41:52.544Z,1.07
2023-02-05T09:44:29.771Z,0.67
2023-02-05T09:47:06.851Z,0.90
2023-02-05T09:49:39.538Z,0.67
2023-02-05T09:52:14.684Z,0.87
2023-02-05T09:54:47.465Z,0.73
2023-02-05T09:57:21.066Z,0.80
2023-02-05T09:59:49.393Z,0.97
2023-02-05T10:02:24.551Z,0.60
2023-02-05T10:04:54.760Z,0.70
2023-02-05T10:07:32.163Z,1.83
2023-02-05T10:10:22.580Z,0.90
2023-02-05T10:13:28.326Z,0.70
2023-02-05T10:16:32.105Z,1.00
2023-02-05T10:19:14.575Z,0.77
2023-02-05T10:22:02.903Z,1.10
2023-02-05T10:24:49.221Z,1.20
2023-02-05T10:27:21.488Z,1.60
2023-02-05T10:29:58.658Z,0.80
2023-02-05T10:32:36.356Z,0.77
2023-02-05T10:35:13.542Z,2.50
2023-02-05T10:37:47.898Z,1.00
2023-02-05T10:40:17.847Z,0.77
2023-02-05T10:42:50.646Z,1.00
2023-02-05T10:45:24.686Z,1.10
2023-02-05T10:48:12.037Z,1.50
2023-02-05T10:50:52.542Z,1.30
2023-02-05T10:53:23.414Z,1.23
2023-02-05T10:55:51.634Z,1.03
2023-02-05T10:58:44.454Z,1.90
2023-02-05T11:01:17.483Z,1.57
2023-02-05T11:03:58.931Z,0.70
2023-02-05T11:06:29.446Z,1.40
2023-02-05T11:08:57.441Z,1.37
2023-02-05T11:11:29.413Z,0.87
2023-02-05T11:13:59.597Z,1.63
2023-02-05T11:16:38.740Z,1.03
2023-02-05T11:19:20.270Z,1.43
2023-02-05T11:21:54.315Z,1.67
2023-02-05T11:24:29.069Z,1.27
2023-02-05T11:27:32.043Z,1.03
2023-02-05T11:30:19.089Z,1.37
2023-02-05T11:32:48.547Z,1.20
2023-02-05T11:35:23.597Z,1.67
2023-02-05T11:37:59.687Z,1.20
2023-02-05T11:40:31.828Z,1.30
2023-02-05T11:43:06.803Z,1.43
2023-02-05T11:45:39.714Z,1.17
2023-02-05T11:48:26.007Z,1.27
2023-02-05T11:51:06.423Z,1.00
2023-02-05T11:53:46.375Z,2.00
2023-02-05T11:56:25.235Z,1.33
2023-02-05T11:59:02.916Z,1.40
2023-02-05T12:01:35.458Z,1.57
2023-02-05T12:04:17.991Z,1.00
2023-02-05T12:06:51.364Z,1.00
2023-02-05T12:09:27.614Z,1.10
2023-02-05T12:12:06.776Z,1.40
2023-02-05T12:14:58.519Z,1.30
2023-02-05T12:17:41.478Z,1.13
2023-02-05T12:20:21.663Z,1.17
2023-02-05T12:23:46.208Z,1.00
2023-02-05T12:26:36.488Z,0.90
2023-02-05T12:29:24.312Z,1.23
2023-02-05T12:32:05.845Z,0.90
2023-02-05T12:34:43.061Z,1.20
2023-02-05T12:37:28.808Z,0.60
2023-02-05T12:40:08.990Z,0.93
2023-02-05T12:42:44.089Z,0.80
2023-02-05T12:45:51.177Z,1.00
2023-02-05T12:48:40.131Z,0.70
2023-02-05T12:51:27.442Z,0.90
2023-02-05T12:54:20.893Z,1.07
2023-02-05T12:56:59.416Z,1.10
2023-02-05T12:59:36.937Z,0.90
2023-02-05T13:02:18.335Z,1.30
2023-02-05T13:04:50.274Z,1.27
2023-02-05T13:07:30.293Z,0.80
2023-02-05T13:10:03.955Z,1.20
2023-02-05T13:12:37.021Z,1.00
2023-02-05T13:15:15.601Z,1.47
2023-02-05T13:17:51.926Z,0.57
2023-02-05T13:20:46.057Z,0.80
2023-02-05T13:23:33.694Z,0.97
2023-02-05T13:26:21.970Z,1.40
2023-02-05T13:28:54.942Z,0.90
2023-02-05T13:31:28.833Z,1.10
2023-02-05T13:34:01.741Z,1.10
2023-02-05T13:37:01.285Z,0.83
2023-02-05T13:39:51.677Z,1.23
2023-02-05T13:43:09.511Z,1.53
2023-02-05T13:46:08.915Z,1.20
2023-02-05T13:49:10.219Z,1.20
2023-02-05T13:51:48.937Z,0.83
2023-02-05T13:54:50.515Z,1.20
2023-02-05T13:57:58.225Z,1.00
2023-02-05T14:00:27.652Z,2.07
2023-02-05T14:02:57.241Z,1.23
2023-02-05T14:05:31.549Z,1.10
2023-02-05T14:08:03.063Z,0.80
2023-02-05T14:10:33.700Z,0.60
2023-02-05T14:13:19.170Z,2.10
2023-02-05T14:15:47.382Z,1.20
2023-02-05T14:18:51.131Z,0.77
2023-02-05T14:22:10.062Z,1.40
2023-02-05T14:24:49.155Z,2.20
2023-02-05T14:27:55.386Z,1.10
2023-02-05T14:30:53.671Z,1.07
2023-02-05T14:33:38.986Z,1.07
2023-02-05T14:36:31.562Z,1.10
2023-02-05T14:39:02.741Z,0.80
2023-02-05T14:41:35.913Z,1.30
2023-02-05T14:44:06.676Z,1.33
2023-02-05T14:46:39.890Z,1.30
2023-02-05T14:49:21.086Z,2.00
2023-02-05T14:51:54.529Z,1.20
2023-02-05T14:54:25.145Z,1.90
2023-02-05T14:56:55.442Z,1.63
2023-02-05T14:59:29.297Z,1.00
2023-02-05T15:01:59.977Z,1.27
2023-02-05T15:04:41.749Z,1.63
2023-02-05T15:07:13.908Z,0.90
2023-02-05T15:09:45.888Z,1.63
2023-02-05T15:12:38.157Z,1.53
2023-02-05T15:15:30.873Z,2.60
2023-02-05T15:18:05.983Z,1.73
2023-02-05T15:20:37.132Z,1.17
2023-02-05T15:23:12.715Z,1.07
2023-02-05T15:25:43.659Z,1.40
2023-02-05T15:28:22.926Z,1.40
2023-02-05T15:31:09.997Z,1.87
2023-02-05T15:33:47.894Z,1.80
2023-02-05T15:36:24.816Z,1.23
2023-02-05T15:39:02.822Z,1.60
2023-02-05T15:41:33.581Z,2.70
2023-02-05T15:44:03.599Z,1.33
2023-02-05T15:46:34.174Z,1.57
2023-02-05T15:49:06.616Z,1.60
2023-02-05T15:51:37.113Z,1.30
2023-02-05T15:54:06.854Z,1.10
2023-02-05T15:56:37.971Z,1.20
2023-02-05T15:59:14.393Z,1.87
2023-02-05T16:01:46.695Z,1.50
2023-02-05T16:04:20.581Z,1.10
2023-02-05T16:06:48.767Z,1.47
2023-02-05T16:09:18.787Z,1.73
2023-02-05T16:11:48.300Z,2.10
2023-02-05T16:14:18.342Z,1.40
2023-02-05T16:16:57.994Z,1.10
2023-02-05T16:19:32.267Z,1.37
2023-02-05T16:22:05.039Z,1.67
2023-02-05T16:24:37.615Z,1.47
2023-02-05T16:27:19.389Z,1.70
2023-02-05T16:30:19.889Z,1.27
2023-02-05T16:32:48.902Z,2.03
2023-02-05T16:35:25.738Z,2.23
2023-02-05T16:37:54.015Z,1.60
2023-02-05T16:40:35.227Z,1.60
2023-02-05T16:43:20.458Z,1.17
2023-02-05T16:46:34.672Z,2.00
2023-02-05T16:49:04.499Z,1.47
2023-02-05T16:51:37.221Z,1.73
2023-02-05T16:54:30.663Z,1.47
2023-02-05T16:57:04.947Z,2.40
2023-02-05T16:59:36.404Z,1.70
2023-02-05T17:02:04.961Z,1.70
2023-02-05T17:04:35.147Z,1.47
2023-02-05T17:07:15.959Z,1.80
2023-02-05T17:09:44.065Z,1.37
2023-02-05T17:12:40.764Z,1.53
2023-02-05T17:15:34.187Z,1.47
2023-02-05T17:18:11.014Z,1.30
2023-02-05T17:20:39.034Z,1.60
2023-02-05T17:23:12.966Z,1.87
2023-02-05T17:25:43.772Z,1.30
2023-02-05T17:28:16.628Z,1.93
2023-02-05T17:30:46.893Z,1.37
2023-02-05T17:33:18.792Z,1.40
2023-02-05T17:35:46.962Z,1.60
2023-02-05T17:38:16.407Z,1.43
2023-02-05T17:40:45.254Z,2.43
2023-02-05T17:43:13.805Z,2.73
2023-02-05T17:45:44.219Z,1.30
2023-02-05T17:48:12.943Z,2.80
2023-02-05T17:50:41.203Z,1.83
2023-02-05T17:53:14.067Z,1.43
2023-02-05T17:55:43.531Z,1.80
2023-02-05T17:58:11.535Z,1.53
2023-02-05T18:00:39.520Z,2.53
2023-02-05T18:03:07.530Z,1.33
2023-02-05T18:05:35.464Z,1.20
2023-02-05T18:08:03.571Z,1.77
2023-02-05T18:10:32.892Z,1.50
2023-02-05T18:13:02.932Z,1.53
2023-02-05T18:15:32.751Z,1.20
2023-02-05T18:18:00.698Z,1.37
2023-02-05T18:20:28.694Z,1.90
2023-02-05T18:22:56.671Z,2.47
2023-02-05T18:25:24.660Z,1.97
2023-02-05T18:27:52.856Z,1.80
2023-02-05T18:30:22.437Z,2.07
2023-02-05T18:32:50.472Z,1.57
2023-02-05T18:35:29.350Z,1.53
2023-02-05T18:37:57.296Z,1.10
2023-02-05T18:40:26.505Z,1.00
2023-02-05T18:42:56.202Z,1.87
2023-02-05T18:45:26.697Z,1.80
2023-02-05T18:47:54.835Z,1.53
2023-02-05T18:50:23.885Z,1.07
2023-02-05T18:52:51.880Z,1.50
2023-02-05T18:55:19.912Z,1.87
2023-02-05T18:57:47.894Z,1.53
2023-02-05T19:00:16.490Z,2.70
2023-02-05T19:02:45.937Z,1.97
2023-02-05T19:05:13.923Z,2.10
2023-02-05T19:07:42.982Z,1.50
2023-02-05T19:10:11.234Z,1.13
2023-02-05T19:12:39.163Z,1.57
2023-02-05T19:15:07.978Z,2.60
2023-02-05T19:17:35.939Z,1.40
2023-02-05T19:20:06.598Z,2.40
2023-02-05T19:22:34.564Z,2.07
2023-02-05T19:25:02.683Z,2.30
2023-02-05T19:27:30.794Z,1.90
2023-02-05T19:29:58.770Z,2.60
2023-02-05T19:32:27.289Z,1.40
2023-02-05T19:34:55.693Z,2.37
2023-02-05T19:37:25.023Z,2.40
2023-02-05T19:39:53.003Z,2.53
2023-02-05T19:42:20.988Z,1.90
2023-02-05T19:44:48.928Z,2.13
2023-02-05T19:47:16.973Z,1.83
2023-02-05T19:49:44.948Z,3.03
2023-02-05T19:52:13.055Z,3.27
2023-02-05T19:54:42.374Z,1.90
2023-02-05T19:57:10.372Z,2.93
2023-02-05T19:59:38.360Z,2.37
2023-02-05T20:02:06.388Z,2.23
2023-02-05T20:04:34.436Z,2.10
2023-02-05T20:07:02.431Z,1.97
2023-02-05T20:09:39.173Z,1.80
2023-02-05T20:12:12.924Z,1.10
2023-02-05T20:14:41.204Z,2.77
2023-02-05T20:17:09.154Z,2.47
2023-02-05T20:19:37.306Z,2.23
2023-02-05T20:22:05.329Z,1.93
2023-02-05T20:24:33.378Z,2.07
2023-02-05T20:27:01.390Z,2.43
2023-02-05T20:29:48.190Z,2.67
2023-02-05T20:32:16.271Z,1.63
2023-02-05T20:34:49.938Z,5.07
2023-02-05T20:37:19.357Z,2.50
2023-02-05T20:39:48.197Z,2.10
2023-02-05T20:42:16.585Z,1.80
2023-02-05T20:44:45.932Z,1.17
2023-02-05T20:47:15.555Z,1.80
2023-02-05T20:49:43.678Z,2.07
2023-02-05T20:52:11.988Z,1.87
2023-02-05T20:54:40.257Z,1.40
2023-02-05T20:57:08.979Z,1.33
2023-02-05T20:59:37.511Z,2.17
2023-02-05T21:02:07.686Z,2.73
2023-02-05T21:04:37.664Z,1.57
2023-02-05T21:07:05.732Z,1.77
2023-02-05T21:09:33.942Z,1.30
2023-02-05T21:12:01.943Z,2.50
2023-02-05T21:14:30.116Z,1.40
2023-02-05T21:16:58.422Z,1.80
2023-02-05T21:19:27.837Z,2.43
2023-02-05T21:21:55.775Z,1.50
2023-02-05T21:24:23.912Z,1.40
2023-02-05T21:26:51.923Z,1.70
2023-02-05T21:29:21.530Z,1.93
2023-02-05T21:31:52.663Z,1.80
2023-02-05T21:34:22.542Z,1.40
2023-02-05T21:36:52.665Z,2.17
2023-02-05T21:39:21.275Z,4.37
2023-02-05T21:41:50.608Z,1.90
2023-02-05T21:44:19.064Z,2.23
2023-02-05T21:46:47.125Z,1.30
2023-02-05T21:49:15.423Z,1.60
2023-02-05T21:51:43.552Z,2.33
2023-02-05T21:54:13.083Z,1.60
2023-02-05T21:56:43.562Z,1.87
2023-02-05T21:59:12.449Z,1.20
2023-02-05T22:01:40.896Z,1.40
2023-02-05T22:04:11.623Z,1.63
2023-02-05T22:06:39.598Z,1.60
2023-02-05T22:09:13.220Z,1.90
2023-02-05T22:11:41.389Z,1.20
2023-02-05T22:14:10.023Z,2.67
2023-02-05T22:16:39.053Z,2.70
2023-02-05T22:19:07.699Z,1.50
2023-02-05T22:21:37.813Z,1.97
2023-02-05T22:24:07.418Z,1.40
2023-02-05T22:26:38.920Z,1.80
2023-02-05T22:29:09.451Z,1.90
2023-02-05T22:31:37.893Z,3.80
2023-02-05T22:34:06.503Z,2.10
2023-02-05T22:36:35.716Z,3.03
2023-02-05T22:39:05.588Z,1.30
2023-02-05T22:41:36.925Z,1.50
2023-02-05T22:44:06.927Z,1.67
2023-02-05T22:46:38.136Z,1.10
2023-02-05T22:49:06.212Z,1.33
2023-02-05T22:51:38.139Z,1.90
2023-02-05T22:54:06.996Z,2.60
2023-02-05T22:56:37.987Z,2.50
2023-02-05T22:59:06.613Z,1.53
2023-02-05T23:01:36.636Z,1.63
2023-02-05T23:04:06.579Z,2.20
2023-02-05T23:06:36.753Z,1.57
2023-02-05T23:09:07.263Z,2.30
2023-02-05T23:11:37.268Z,1.67
2023-02-05T23:14:07.292Z,1.60
2023-02-05T23:16:37.774Z,2.33
2023-02-05T23:19:07.831Z,2.13
2023-02-05T23:21:37.292Z,1.13
2023-02-05T23:24:06.124Z,1.03
2023-02-05T23:26:38.771Z,2.90
2023-02-05T23:29:07.340Z,1.33
2023-02-05T23:31:35.782Z,1.53
2023-02-05T23:34:03.918Z,2.93
2023-02-05T23:36:31.903Z,1.80
2023-02-05T23:38:59.931Z,1.20
2023-02-05T23:41:37.057Z,1.20
2023-02-05T23:44:09.409Z,1.63
2023-02-05T23:46:38.066Z,1.53
2023-02-05T23:49:06.679Z,2.50
2023-02-05T23:51:35.417Z,1.53
2023-02-05T23:54:03.649Z,1.50
2023-02-05T23:56:31.926Z,1.97
2023-02-05T23:59:00.396Z,1.63
